Latest Weather Observations for Kingaroy

IDQ60801

Issued at 2:35 pm EST Thursday 2 October 2014 (issued every 30 minutes, with the page automatically refreshed every 10 minutes)

About weather observations | Map of weather stations | Latest weather observations for QLD | Other Formats
Station Details ID: 040922 Name: KINGAROY AIRPORT Lat: -26.57 Lon: 151.84 Height: 433.67 m
Data from the previous 72 hours. | See also: Recent months at Kingaroy
Date/Time
EST
Temp
°C
App
Temp
°C
Dew
Point
Rel
Hum
%
Delta-T
°C
Wind Press
QNH
hPa
Press
MSL
hPa
Rain
since 9 am
mm
Dir
 
Spd
km/h
Gust
km/h
Spd
kts
Gust
kts
02/02:30pm 25.3 23.6 8.3 34 9.3 W 7 15 4 8 1018.8 1017.2 0.0
02/02:00pm 24.2 22.1 8.2 36 8.7 NNE 9 17 5 9 1019.1 1017.5 0.0
02/01:30pm 23.9 20.8 7.1 34 8.9 N 13 24 7 13 1019.4 1017.8 0.0
02/01:00pm 24.4 21.9 8.0 35 8.9 NE 11 17 6 9 1019.7 1018.1 0.0
02/12:30pm 22.6 20.1 8.0 39 7.8 NNE 11 20 6 11 1020.1 1018.6 0.0
02/12:00pm 23.0 20.6 8.7 40 7.8 N 11 22 6 12 1020.5 1019.0 0.0
02/11:30am 22.9 19.6 9.7 43 7.3 E 17 24 9 13 1020.9 1019.4 0.0
02/11:00am 21.1 17.7 9.0 46 6.5 E 17 26 9 14 1021.5 1019.9 0.0
02/10:30am 19.9 16.9 9.2 50 5.8 ENE 15 26 8 14 1022.0 1020.5 0.0
02/10:00am 20.7 17.9 9.9 50 5.9 ENE 15 20 8 11 1022.2 1020.7 0.0
02/09:30am 19.4 16.2 9.9 54 5.2 E 17 30 9 16 1022.4 1020.9 0.0
02/09:00am 18.6 15.0 10.4 59 4.5 ESE 20 30 11 16 1022.5 1021.0 0.0
02/08:30am 17.6 14.6 10.5 63 3.9 E 17 24 9 13 1022.6 1021.1 0.0
02/08:00am 16.7 14.4 10.3 66 3.5 ESE 13 24 7 13 1022.6 1021.1 0.0
02/07:30am 16.6 13.6 10.5 67 3.3 ESE 17 24 9 13 1022.3 1020.8 0.0
02/07:00am 16.0 13.0 10.5 70 3.0 ESE 17 24 9 13 1021.8 1020.3 0.0
02/06:30am 15.4 12.7 10.4 72 2.7 ESE 15 22 8 12 1021.6 1020.0 0.0
02/06:00am 14.8 12.1 10.2 74 2.4 ESE 15 22 8 12 1021.1 1019.6 0.0
02/05:30am 14.9 12.6 10.3 74 2.5 ESE 13 19 7 10 1020.9 1019.4 0.0
02/05:00am 15.1 12.4 10.3 73 2.6 ESE 15 20 8 11 1020.4 1018.9 0.0
02/04:30am 15.3 12.3 10.7 74 2.5 ESE 17 24 9 13 1020.2 1018.7 0.0
02/04:00am 15.6 12.7 11.0 74 2.5 ESE 17 26 9 14 1019.9 1018.4 0.0
02/03:30am 15.9 12.5 11.3 74 2.5 ESE 20 32 11 17 1019.4 1017.8 0.0
02/03:00am 16.1 13.8 11.9 76 2.3 ESE 15 26 8 14 1019.3 1017.7 0.0
02/02:30am 16.0 12.9 12.2 78 2.1 ESE 20 30 11 16 1019.2 1017.6 0.0
02/02:00am 16.5 13.1 12.5 77 2.2 ESE 22 30 12 16 1019.1 1017.5 0.0
02/01:30am 16.8 15.1 13.5 81 1.9 ESE 15 28 8 15 1019.2 1017.6 0.0
02/01:00am 16.9 14.5 13.8 82 1.8 ESE 19 30 10 16 1019.2 1017.6 0.0
02/12:30am 17.2 14.9 14.1 82 1.8 ESE 19 26 10 14 1019.0 1017.4 0.0
02/12:00am 17.7 15.4 14.6 82 1.8 ESE 20 32 11 17 1019.1 1017.5 0.0
 
Date/Time
EST
Temp
°C
App
Temp
°C
Dew
Point
Rel
Hum
%
Delta-T
°C
Wind Press
QNH
hPa
Press
MSL
hPa
Rain
since 9 am
mm
Dir
 
Spd
km/h
Gust
km/h
Spd
kts
Gust
kts
01/11:30pm 18.4 16.2 14.3 77 2.4 ESE 19 28 10 15 1018.9 1017.3 0.0
01/11:00pm 20.2 15.3 4.3 35 7.8 SSE 19 26 10 14 1018.9 1017.3 0.0
01/10:30pm 19.0 14.2 2.8 34 7.7 S 17 19 9 10 1018.2 1016.7 0.0
01/10:00pm 20.1 15.0 2.9 32 8.2 S 19 20 10 11 1017.9 1016.4 0.0
01/09:30pm 20.1 15.4 2.9 32 8.2 S 17 20 9 11 1017.8 1016.3 0.0
01/09:00pm 20.5 16.5 2.8 31 8.5 S 13 13 7 7 1017.6 1016.0 0.0
01/08:30pm 20.8 16.5 3.1 31 8.6 S 15 17 8 9 1017.4 1015.8 0.0
01/08:00pm 22.4 17.3 3.0 28 9.5 S 19 22 10 12 1017.2 1015.6 0.0
01/07:30pm 22.3 18.3 2.9 28 9.4 S 13 15 7 8 1016.8 1015.2 0.0
01/07:00pm 24.9 20.8 2.4 23 11.0 SW 13 17 7 9 1016.2 1014.7 0.0
01/06:30pm 26.0 21.8 3.9 24 11.2 SW 15 19 8 10 1015.9 1014.4 0.0
01/06:00pm 26.8 23.9 4.6 24 11.5 WSW 9 13 5 7 1015.3 1013.7 0.0
01/05:30pm 27.9 25.2 5.5 24 11.8 WSW 9 15 5 8 1015.2 1013.6 0.0
01/05:00pm 29.5 24.7 4.9 21 13.0 SW 19 26 10 14 1015.0 1013.4 0.0
01/04:30pm 30.1 25.9 7.3 24 12.6 WSW 19 32 10 17 1014.9 1013.3 0.0
01/04:00pm 30.9 26.6 8.0 24 12.8 W 20 30 11 16 1014.7 1013.1 0.0
01/03:30pm 30.9 26.6 8.0 24 12.8 W 20 33 11 18 1014.7 1013.1 0.0
01/03:00pm 31.0 26.8 7.5 23 13.1 W 19 32 10 17 1014.7 1013.1 0.0
01/02:30pm 31.2 26.2 8.2 24 12.9 SW 24 32 13 17 1015.1 1013.5 0.0
01/02:00pm 30.6 26.2 8.9 26 12.3 WSW 22 30 12 16 1015.3 1013.7 0.0
01/01:30pm 30.6 27.4 10.0 28 11.9 NW 17 35 9 19 1015.6 1014.0 0.0
01/01:00pm 29.9 25.2 9.4 28 11.7 WSW 24 32 13 17 1016.2 1014.7 0.0
01/12:30pm 28.6 25.1 10.3 32 10.5 WNW 19 32 10 17 1016.8 1015.2 0.0
01/12:00pm 28.3 25.4 9.6 31 10.6 WNW 15 32 8 17 1017.4 1015.8 0.0
01/11:30am 27.7 24.6 10.4 34 9.9 NW 17 28 9 15 1018.0 1016.5 0.0
01/11:00am 26.4 23.0 10.5 37 9.1 NW 19 24 10 13 1018.8 1017.2 0.0
01/10:30am 25.1 21.6 10.9 41 8.1 WNW 20 28 11 15 1019.3 1017.7 0.0
01/10:00am 24.8 21.7 11.7 44 7.6 W 19 30 10 16 1019.7 1018.1 0.0
01/09:30am 22.9 20.9 11.6 49 6.5 W 13 22 7 12 1019.9 1018.9 0.0
01/09:00am 21.4 18.3 11.7 54 5.5 NW 19 28 10 15 1019.9 1018.9 0.0
01/08:30am 20.2 17.2 11.9 59 4.7 NW 19 24 10 13 1019.5 1018.5 0.0
01/08:00am 18.3 15.2 11.6 65 3.7 NW 19 24 10 13 1019.6 1018.6 0.0
01/07:30am 16.5 14.5 11.6 73 2.7 NNW 13 15 7 8 1019.7 1018.7 0.0
01/07:00am 14.1 13.4 11.4 84 1.5 NNW 6 9 3 5 1019.7 1018.7 0.0
01/06:30am 12.4 12.5 10.3 87 1.1 CALM 0 0 0 0 1019.5 1018.5 0.0
01/06:00am 10.5 10.3 8.9 90 0.8 CALM 0 0 0 0 1019.3 1018.3 0.0
01/05:30am 9.5 8.9 7.3 86 1.1 CALM 0 0 0 0 1019.1 1018.1 0.0
01/05:00am 9.5 8.9 7.6 88 0.9 CALM 0 6 0 3 1018.9 1017.8 0.0
01/04:30am 9.9 9.0 6.2 78 1.8 CALM 0 0 0 0 1018.4 1017.4 0.0
01/04:00am 11.6 11.6 9.7 88 1.0 CALM 0 0 0 0 1018.4 1017.4 0.0
01/03:30am 11.8 11.4 9.7 87 1.1 N 2 6 1 3 1018.4 1017.4 0.0
01/03:00am 12.5 12.7 10.6 88 1.0 CALM 0 0 0 0 1018.6 1017.6 0.0
01/02:30am 12.0 11.9 9.6 85 1.2 CALM 0 0 0 0 1018.6 1017.6 0.0
01/02:00am 12.7 12.3 9.7 82 1.6 E 2 6 1 3 1018.9 1017.8 0.0
01/01:30am 13.3 12.1 10.3 82 1.6 NNW 7 7 4 4 1019.1 1018.1 0.0
01/01:00am 13.4 13.5 10.2 81 1.7 CALM 0 4 0 2 1019.4 1018.4 0.0
01/12:30am 14.1 13.5 10.5 79 1.9 N 4 7 2 4 1019.5 1018.5 0.0
01/12:00am 14.9 13.8 10.7 76 2.3 N 7 9 4 5 1019.7 1018.7 0.0
 
Date/Time
EST
Temp
°C
App
Temp
°C
Dew
Point
Rel
Hum
%
Delta-T
°C
Wind Press
QNH
hPa
Press
MSL
hPa
Rain
since 9 am
mm
Dir
 
Spd
km/h
Gust
km/h
Spd
kts
Gust
kts
30/11:30pm 14.9 13.6 9.9 72 2.7 NNE 7 9 4 5 1019.7 1018.7 0.0
30/11:00pm 16.2 15.2 10.9 71 2.9 NNE 7 9 4 5 1019.9 1018.9 0.0
30/10:30pm 16.8 17.2 11.1 69 3.1 CALM 0 9 0 5 1019.9 1018.9 0.0
30/10:00pm 17.4 16.6 11.0 66 3.5 NE 6 7 3 4 1019.8 1018.8 0.0
30/09:30pm 18.6 18.1 11.9 65 3.8 NE 6 11 3 6 1019.7 1018.7 0.0
30/09:00pm 18.5 18.3 10.6 60 4.3 E 2 7 1 4 1019.8 1018.8 0.0
30/08:30pm 18.8 17.8 9.0 53 5.2 NNE 4 7 2 4 1019.7 1018.7 0.0
30/08:00pm 19.4 19.0 8.1 48 5.9 CALM 0 0 0 0 1019.4 1018.4 0.0
30/07:30pm 18.5 16.9 8.2 51 5.4 W 6 9 3 5 1019.0 1017.9 0.0
30/07:00pm 21.0 19.3 8.3 44 6.8 NNE 7 11 4 6 1018.6 1017.6 0.0
30/06:30pm 22.6 20.7 7.6 38 8.0 NNE 7 11 4 6 1018.3 1017.3 0.0
30/06:00pm 24.2 22.0 7.8 35 8.8 N 9 11 5 6 1018.0 1017.0 0.0
30/05:30pm 25.8 24.0 7.9 32 9.8 N 7 11 4 6 1017.8 1016.8 0.0
30/05:00pm 26.8 24.2 7.8 30 10.4 N 11 17 6 9 1017.6 1016.6 0.0
30/04:30pm 27.3 25.3 7.2 28 10.9 N 7 13 4 7 1017.5 1016.5 0.0
30/04:00pm 27.6 25.1 8.0 29 10.8 N 11 17 6 9 1017.4 1016.4 0.0
30/03:30pm 27.9 25.5 7.2 27 11.3 WNW 9 13 5 7 1017.4 1016.4 0.0
30/03:00pm 28.0 25.5 8.3 29 10.9 NE 11 17 6 9 1017.6 1016.6 0.0
30/02:30pm 28.1 26.4 8.4 29 11.0 N 7 17 4 9 1017.9 1016.9 0.0
30/02:00pm 27.4 24.8 7.8 29 10.7 WNW 11 17 6 9 1018.1 1017.1 0.0
30/01:30pm 26.9 24.7 7.9 30 10.4 NE 9 17 5 9 1018.5 1017.5 0.0
30/01:00pm 26.6 24.5 8.1 31 10.1 N 9 20 5 11 1019.1 1018.1 0.0
30/12:30pm 26.5 24.0 8.0 31 10.1 N 11 19 6 10 1019.5 1018.5 0.0
30/12:00pm 26.4 23.9 8.4 32 9.9 N 11 20 6 11 1020.1 1019.1 0.0
30/11:30am 25.4 22.7 8.8 35 9.2 N 13 22 7 12 1020.6 1019.6 0.0
30/11:00am 24.5 22.0 9.6 39 8.3 NNW 13 28 7 15 1021.0 1020.1 0.0
30/10:30am 23.6 20.6 9.2 40 7.9 NNW 15 22 8 12 1021.5 1020.5 0.0
30/10:00am 22.5 19.2 8.2 40 7.7 NNW 15 22 8 12 1021.9 1020.9 0.0
30/09:30am 22.1 19.5 9.3 44 7.0 N 13 20 7 11 1022.3 1021.3 0.0
30/09:00am 20.9 18.0 9.5 48 6.2 NNW 15 20 8 11 1022.4 1021.4 0.0
30/08:30am 19.4 17.4 10.1 55 5.1 NNW 11 19 6 10 1022.4 1021.4 0.0
30/08:00am 17.2 16.4 11.7 70 3.1 NW 7 13 4 7 1022.3 1021.3 0.0
30/07:30am 15.1 15.4 10.9 76 2.3 CALM 0 0 0 0 1022.2 1021.2 0.0
30/07:00am 12.1 12.1 9.7 85 1.2 CALM 0 0 0 0 1022.2 1021.2 0.0
30/06:30am 9.5 8.9 7.3 86 1.1 CALM 0 0 0 0 1021.9 1020.9 0.0
30/06:00am 7.7 6.8 6.0 89 0.8 CALM 0 0 0 0 1021.6 1020.6 0.0
30/05:30am 7.0 6.0 5.6 91 0.6 CALM 0 0 0 0 1021.3 1020.3 0.0
30/05:00am 7.4 6.4 5.7 89 0.8 CALM 0 0 0 0 1020.9 1019.9 0.0
30/04:30am 7.8 6.9 6.1 89 0.8 CALM 0 0 0 0 1020.7 1019.7 0.0
30/04:00am 8.6 8.0 7.5 93 0.5 CALM 0 0 0 0 1020.5 1019.5 0.0
30/03:30am 8.4 7.7 6.9 90 0.7 CALM 0 0 0 0 1020.4 1019.4 0.0
30/03:00am 9.1 8.5 7.2 88 0.9 CALM 0 0 0 0 1020.3 1019.3 0.0
30/02:30am 9.1 8.4 7.1 87 1.0 CALM 0 0 0 0 1020.5 1019.5 0.0
30/02:00am 10.3 9.2 8.4 88 0.9 S 4 6 2 3 1020.6 1019.6 0.0
30/01:30am 10.3 9.1 6.5 77 1.8 S 2 6 1 3 1020.7 1019.7 0.0
30/01:00am 10.9 9.7 8.0 82 1.4 S 4 7 2 4 1020.8 1019.8 0.0
30/12:30am 12.1 11.0 8.4 78 1.9 E 4 6 2 3 1020.9 1019.9 0.0
30/12:00am 13.2 11.6 8.9 75 2.2 E 7 9 4 5 1021.1 1020.2 0.0
 
Date/Time
EST
Temp
°C
App
Temp
°C
Dew
Point
Rel
Hum
%
Delta-T
°C
Wind Press
QNH
hPa
Press
MSL
hPa
Rain
since 9 am
mm
Dir
 
Spd
km/h
Gust
km/h
Spd
kts
Gust
kts
29/11:30pm 14.1 14.1 9.9 76 2.2 CALM 0 0 0 0 1021.3 1020.3 0.0
29/11:00pm 15.5 14.4 10.5 72 2.7 NE 7 9 4 5 1021.3 1020.3 0.0
29/10:30pm 16.1 15.2 10.6 70 3.0 NNE 6 9 3 5 1021.5 1020.5 0.0
29/10:00pm 16.5 15.6 10.6 68 3.2 NE 6 13 3 7 1021.0 1020.1 0.0
29/09:30pm 17.2 15.8 10.8 66 3.5 NNE 9 15 5 8 1021.0 1020.1 0.0
29/09:00pm 18.0 15.8 10.9 63 3.9 NNE 13 20 7 11 1020.9 1019.9 0.0
29/08:30pm 18.6 16.7 10.4 59 4.5 NNE 11 17 6 9 1020.7 1019.7 0.0
29/08:00pm 19.6 18.0 8.9 50 5.7 NNE 7 15 4 8 1020.3 1019.3 0.0
29/07:30pm 21.2 17.3 8.5 44 6.8 NNE 19 24 10 13 1019.6 1018.6 0.0
29/07:00pm 19.7 17.7 6.1 41 6.9 ENE 6 7 3 4 1019.0 1017.9 0.0
29/06:30pm 21.3 20.5 6.4 38 7.7 CALM 0 6 0 3 1018.6 1017.6 0.0
29/06:00pm 22.6 20.4 6.4 35 8.4 NNE 7 11 4 6 1018.2 1017.2 0.0
29/05:30pm 24.7 22.7 6.4 31 9.7 ENE 6 9 3 5 1018.0 1017.0 0.0
29/05:00pm 25.8 23.3 6.4 29 10.3 NNE 9 17 5 9 1017.8 1016.8 0.0
29/04:30pm 26.6 24.7 6.6 28 10.7 S 6 13 3 7 1017.6 1016.6 0.0
29/04:00pm 26.3 25.0 5.8 27 10.8 NE 2 9 1 5 1017.6 1016.6 0.0
29/03:30pm 27.3 25.5 7.2 28 10.9 SSW 6 9 3 5 1017.5 1016.5 0.0
29/03:00pm 26.0 23.4 6.1 28 10.5 N 9 15 5 8 1017.6 1016.6 0.0

Other Formats:

Comma delimited format used in spreadsheet applications
http://www.bom.gov.au/fwo/IDQ60801/IDQ60801.94549.axf

JavaScript Object Notation format (JSON) in row-major order
http://www.bom.gov.au/fwo/IDQ60801/IDQ60801.94549.json